createdAt,value
2022-12-16T00:01:06.887Z,-2.30
2022-12-16T00:03:35.154Z,-2.10
2022-12-16T00:06:12.658Z,-2.20
2022-12-16T00:08:41.131Z,-2.40
2022-12-16T00:11:09.116Z,-2.60
2022-12-16T00:13:40.178Z,-2.50
2022-12-16T00:16:09.169Z,-2.60
2022-12-16T00:18:36.904Z,-2.70
2022-12-16T00:21:05.218Z,-3.00
2022-12-16T00:23:33.696Z,-2.80
2022-12-16T00:26:02.216Z,-3.00
2022-12-16T00:28:29.884Z,-3.10
2022-12-16T00:30:59.067Z,-3.00
2022-12-16T00:33:27.804Z,-3.00
2022-12-16T00:35:55.968Z,-2.90
2022-12-16T00:38:24.618Z,-2.70
2022-12-16T00:40:52.299Z,-2.60
2022-12-16T00:43:20.777Z,-2.70
2022-12-16T00:45:49.099Z,-2.60
2022-12-16T00:48:18.205Z,-2.70
2022-12-16T00:50:47.429Z,-2.80
2022-12-16T00:53:15.175Z,-2.70
2022-12-16T00:55:43.199Z,-2.70
2022-12-16T00:58:13.554Z,-2.60
2022-12-16T01:00:41.513Z,-2.70
2022-12-16T01:03:09.491Z,-3.00
2022-12-16T01:05:58.632Z,-3.10
2022-12-16T01:08:26.429Z,-3.20
2022-12-16T01:10:55.410Z,-3.10
2022-12-16T01:13:24.391Z,-2.90
2022-12-16T01:15:52.393Z,-2.70
2022-12-16T01:18:20.354Z,-2.70
2022-12-16T01:20:48.039Z,-2.70
2022-12-16T01:23:17.838Z,-2.60
2022-12-16T01:25:45.483Z,-2.70
2022-12-16T01:28:33.133Z,-2.60
2022-12-16T01:31:02.464Z,-2.70
2022-12-16T01:33:31.338Z,-2.60
2022-12-16T01:36:00.227Z,-2.30
2022-12-16T01:38:29.281Z,-2.10
2022-12-16T01:40:57.059Z,-1.60
2022-12-16T01:43:26.003Z,-1.40
2022-12-16T01:45:54.276Z,-1.20
2022-12-16T01:48:27.799Z,-1.10
2022-12-16T01:50:57.053Z,-0.90
2022-12-16T01:53:24.986Z,-0.80
2022-12-16T01:55:56.278Z,-0.80
2022-12-16T01:58:25.233Z,-0.70
2022-12-16T02:00:53.005Z,-0.60
2022-12-16T02:03:22.888Z,-0.90
2022-12-16T02:05:51.006Z,-0.80
2022-12-16T02:08:19.710Z,-1.00
2022-12-16T02:10:55.148Z,-0.90
2022-12-16T02:13:27.438Z,-0.70
2022-12-16T02:16:02.102Z,-0.60
2022-12-16T02:18:33.872Z,-0.50
2022-12-16T02:21:16.330Z,-0.30
2022-12-16T02:23:58.902Z,-0.20
2022-12-16T02:26:42.621Z,-0.20
2022-12-16T02:29:21.759Z,-0.20
2022-12-16T02:31:55.672Z,-0.30
2022-12-16T02:34:29.069Z,-0.40
2022-12-16T02:37:06.772Z,-0.40
2022-12-16T02:39:38.274Z,-0.50
2022-12-16T02:42:11.699Z,-0.60
2022-12-16T02:44:42.643Z,-0.50
2022-12-16T02:47:11.669Z,-0.60
2022-12-16T02:49:57.119Z,-0.60
2022-12-16T02:52:25.796Z,-0.50
2022-12-16T02:54:56.507Z,-0.60
2022-12-16T02:57:45.292Z,-0.70
2022-12-16T03:00:14.848Z,-0.80
2022-12-16T03:02:48.612Z,-0.70
2022-12-16T03:05:21.468Z,-0.80
2022-12-16T03:07:50.917Z,-0.80
2022-12-16T03:10:20.374Z,-1.10
2022-12-16T03:12:48.156Z,-1.30
2022-12-16T03:15:18.336Z,-1.50
2022-12-16T03:17:49.065Z,-1.50
2022-12-16T03:20:19.378Z,-1.30
2022-12-16T03:22:48.335Z,-1.10
2022-12-16T03:25:16.365Z,-0.90
2022-12-16T03:27:47.889Z,-0.90
2022-12-16T03:30:18.516Z,-0.70
2022-12-16T03:32:49.105Z,-0.70
2022-12-16T03:35:20.521Z,-0.60
2022-12-16T03:37:49.405Z,-1.20
2022-12-16T03:40:17.522Z,-1.10
2022-12-16T03:42:45.504Z,-1.20
2022-12-16T03:45:17.323Z,-1.20
2022-12-16T03:47:50.917Z,-1.50
2022-12-16T03:50:20.732Z,-1.60
2022-12-16T03:52:48.421Z,-1.30
2022-12-16T03:55:16.188Z,-1.50
2022-12-16T03:57:43.947Z,-1.60
2022-12-16T04:00:12.286Z,-1.60
2022-12-16T04:02:40.191Z,-1.60
2022-12-16T04:05:09.995Z,-1.60
2022-12-16T04:07:37.699Z,-1.40
2022-12-16T04:10:06.046Z,-1.60
2022-12-16T04:12:51.620Z,-1.60
2022-12-16T04:15:33.443Z,-1.90
2022-12-16T04:18:19.173Z,-1.80
2022-12-16T04:21:07.484Z,-2.00
2022-12-16T04:23:54.371Z,-2.30
2022-12-16T04:26:22.358Z,-2.60
2022-12-16T04:28:50.006Z,-2.60
2022-12-16T04:31:17.716Z,-2.60
2022-12-16T04:34:08.481Z,-2.60
2022-12-16T04:36:54.963Z,-2.60
2022-12-16T04:39:40.031Z,-2.40
2022-12-16T04:42:25.076Z,-2.60
2022-12-16T04:45:10.431Z,-2.50
2022-12-16T04:47:57.552Z,-2.70
2022-12-16T04:50:43.061Z,-2.70
2022-12-16T04:53:29.530Z,-2.70
2022-12-16T04:56:14.998Z,-2.50
2022-12-16T04:59:00.210Z,-2.50
2022-12-16T05:01:45.361Z,-2.30
2022-12-16T05:04:30.840Z,-2.30
2022-12-16T05:07:15.996Z,-2.20
2022-12-16T05:10:02.354Z,-1.90
2022-12-16T05:12:47.417Z,-1.80
2022-12-16T05:15:40.885Z,-1.50
2022-12-16T05:18:26.912Z,-1.60
2022-12-16T05:21:12.107Z,-1.50
2022-12-16T05:23:57.262Z,-1.40
2022-12-16T05:26:43.753Z,-1.50
2022-12-16T05:29:25.351Z,-1.50
2022-12-16T05:32:10.478Z,-1.30
2022-12-16T05:34:55.440Z,-1.20
2022-12-16T05:37:40.631Z,-1.30
2022-12-16T05:40:38.104Z,-1.90
2022-12-16T05:43:24.471Z,-2.50
2022-12-16T05:46:09.657Z,-3.00
2022-12-16T05:48:55.224Z,-3.30
2022-12-16T05:51:40.391Z,-3.60
2022-12-16T05:54:26.131Z,-3.70
2022-12-16T05:57:11.347Z,-3.90
2022-12-16T05:59:57.861Z,-3.90
2022-12-16T06:02:43.185Z,-3.90
2022-12-16T06:05:28.771Z,-4.00
2022-12-16T06:08:13.915Z,-4.00
2022-12-16T06:10:59.149Z,-4.00
2022-12-16T06:13:44.190Z,-4.20
2022-12-16T06:16:30.723Z,-4.20
2022-12-16T06:19:16.164Z,-4.30
2022-12-16T06:22:01.182Z,-4.40
2022-12-16T06:24:46.469Z,-4.50
2022-12-16T06:27:46.058Z,-4.60
2022-12-16T06:30:31.492Z,-4.50
2022-12-16T06:33:17.928Z,-4.60
2022-12-16T06:36:02.997Z,-4.80
2022-12-16T06:38:48.172Z,-4.70
2022-12-16T06:41:33.221Z,-4.80
2022-12-16T06:44:18.438Z,-4.80
2022-12-16T06:47:03.591Z,-4.80
2022-12-16T06:49:49.970Z,-5.00
2022-12-16T06:52:35.167Z,-5.10
2022-12-16T06:55:20.258Z,-5.20
2022-12-16T06:58:09.758Z,-5.20
2022-12-16T07:00:55.679Z,-5.30
2022-12-16T07:03:41.583Z,-5.30
2022-12-16T07:06:28.515Z,-5.30
2022-12-16T07:09:13.611Z,-5.30
2022-12-16T07:11:58.704Z,-5.20
2022-12-16T07:14:43.857Z,-5.10
2022-12-16T07:17:29.250Z,-5.10
2022-12-16T07:20:14.355Z,-5.20
2022-12-16T07:23:09.850Z,-5.20
2022-12-16T07:25:57.559Z,-5.20
2022-12-16T07:28:42.631Z,-5.20
2022-12-16T07:31:27.923Z,-5.20
2022-12-16T07:34:13.320Z,-5.10
2022-12-16T07:36:58.423Z,-5.10
2022-12-16T07:39:51.396Z,-5.00
2022-12-16T07:42:39.673Z,-5.10
2022-12-16T07:45:25.194Z,-5.10
2022-12-16T07:48:10.985Z,-5.00
2022-12-16T07:50:56.328Z,-4.90
2022-12-16T07:53:41.295Z,-4.60
2022-12-16T07:56:27.706Z,-4.30
2022-12-16T07:59:12.661Z,-4.00
2022-12-16T08:01:58.058Z,-3.70
2022-12-16T08:04:43.498Z,-3.40
2022-12-16T08:07:28.540Z,-3.00
2022-12-16T08:10:13.543Z,-2.60
2022-12-16T08:12:59.862Z,-2.20
2022-12-16T08:15:44.971Z,-1.80
2022-12-16T08:18:30.226Z,-1.50
2022-12-16T08:21:15.294Z,-1.20
2022-12-16T08:24:02.796Z,-0.70
2022-12-16T08:26:47.948Z,-0.40
2022-12-16T08:29:44.147Z,0.10
2022-12-16T08:32:29.875Z,0.40
2022-12-16T08:35:14.975Z,0.70
2022-12-16T08:37:59.922Z,0.90
2022-12-16T08:40:45.228Z,1.40
2022-12-16T08:43:30.735Z,1.80
2022-12-16T08:46:17.747Z,2.00
2022-12-16T08:49:03.225Z,2.20
2022-12-16T08:51:48.290Z,2.40
2022-12-16T08:54:33.421Z,2.60
2022-12-16T08:57:18.533Z,2.90
2022-12-16T09:00:03.659Z,3.10
2022-12-16T09:02:50.658Z,3.20
2022-12-16T09:05:36.333Z,3.40
2022-12-16T09:08:22.604Z,3.50
2022-12-16T09:11:07.784Z,3.50
2022-12-16T09:13:52.912Z,3.70
2022-12-16T09:16:38.199Z,4.10
2022-12-16T09:19:25.063Z,4.30
2022-12-16T09:22:10.144Z,4.60
2022-12-16T09:24:56.097Z,4.70
2022-12-16T09:27:41.430Z,4.80
2022-12-16T09:30:27.854Z,4.90
2022-12-16T09:33:12.873Z,5.20
2022-12-16T09:35:59.269Z,5.30
2022-12-16T09:38:44.446Z,5.40
2022-12-16T09:41:43.079Z,5.50
2022-12-16T09:44:44.026Z,5.50
2022-12-16T09:47:34.161Z,5.20
2022-12-16T09:50:19.233Z,4.90
2022-12-16T09:53:09.097Z,4.90
2022-12-16T09:55:56.334Z,4.90
2022-12-16T09:58:43.449Z,4.90
2022-12-16T10:01:30.134Z,4.70
2022-12-16T10:04:16.339Z,4.50
2022-12-16T10:07:04.202Z,4.80
2022-12-16T10:09:54.833Z,5.00
2022-12-16T10:12:44.270Z,4.90
2022-12-16T10:15:33.508Z,4.70
2022-12-16T10:18:20.733Z,4.50
2022-12-16T10:21:08.864Z,4.50
2022-12-16T10:23:59.349Z,4.40
2022-12-16T10:26:51.719Z,4.50
2022-12-16T10:29:37.755Z,4.70
2022-12-16T10:32:30.685Z,5.00
2022-12-16T10:35:15.957Z,5.30
2022-12-16T10:38:01.517Z,5.50
2022-12-16T10:41:03.692Z,5.50
2022-12-16T10:43:56.003Z,5.40
2022-12-16T10:46:43.367Z,5.40
2022-12-16T10:49:32.223Z,5.50
2022-12-16T10:52:17.530Z,5.90
2022-12-16T10:55:05.166Z,5.80
2022-12-16T10:57:53.333Z,6.10
2022-12-16T11:00:56.454Z,6.10
2022-12-16T11:03:43.206Z,6.20
2022-12-16T11:06:29.703Z,6.50
2022-12-16T11:09:29.341Z,6.70
2022-12-16T11:12:31.509Z,6.90
2022-12-16T11:15:31.973Z,7.10
2022-12-16T11:18:21.892Z,7.30
2022-12-16T11:21:22.257Z,7.50
2022-12-16T11:24:22.728Z,7.60
2022-12-16T11:27:10.800Z,7.80
2022-12-16T11:30:07.431Z,7.60
2022-12-16T11:32:53.470Z,7.60
2022-12-16T11:35:42.642Z,7.10
2022-12-16T11:38:31.289Z,6.90
2022-12-16T11:41:17.407Z,7.40
2022-12-16T11:44:06.052Z,7.60
2022-12-16T11:46:51.266Z,7.90
2022-12-16T11:49:39.213Z,7.60
2022-12-16T11:52:37.004Z,7.70
2022-12-16T11:55:56.022Z,7.90
2022-12-16T11:58:37.457Z,8.30
2022-12-16T12:01:27.173Z,8.40
2022-12-16T12:04:14.816Z,8.70
2022-12-16T12:07:09.195Z,9.10
2022-12-16T12:09:58.627Z,9.30
2022-12-16T12:12:49.143Z,9.50
2022-12-16T12:15:38.174Z,8.80
2022-12-16T12:18:28.895Z,8.20
2022-12-16T12:21:17.591Z,7.10
2022-12-16T12:24:07.770Z,6.00
2022-12-16T12:26:52.620Z,5.10
2022-12-16T12:29:40.858Z,4.50
2022-12-16T12:32:33.520Z,4.00
2022-12-16T12:35:24.278Z,3.60
2022-12-16T12:38:12.648Z,3.20
2022-12-16T12:41:02.927Z,3.00
2022-12-16T12:43:53.857Z,2.90
2022-12-16T12:46:42.460Z,2.70
2022-12-16T12:49:33.065Z,2.50
2022-12-16T12:52:21.467Z,2.30
2022-12-16T12:55:09.673Z,2.20
2022-12-16T12:57:56.322Z,2.00
2022-12-16T13:00:44.248Z,1.90
2022-12-16T13:03:33.048Z,1.90
2022-12-16T13:06:15.319Z,1.90
2022-12-16T13:09:12.563Z,1.80
2022-12-16T13:11:58.091Z,1.70
2022-12-16T13:15:11.051Z,1.80
2022-12-16T13:18:19.857Z,1.80
2022-12-16T13:21:06.937Z,1.70
2022-12-16T13:23:53.496Z,1.70
2022-12-16T13:26:42.396Z,1.50
2022-12-16T13:29:35.072Z,1.50
2022-12-16T13:32:21.773Z,1.50
2022-12-16T13:35:17.523Z,1.50
2022-12-16T13:38:10.943Z,1.50
2022-12-16T13:41:11.166Z,1.50
2022-12-16T13:44:09.443Z,1.30
2022-12-16T13:46:58.613Z,1.20
2022-12-16T13:50:00.449Z,1.20
2022-12-16T13:52:49.681Z,1.10
2022-12-16T13:55:37.618Z,1.10
2022-12-16T13:58:25.352Z,1.00
2022-12-16T14:01:15.507Z,0.90
2022-12-16T14:04:02.375Z,0.70
2022-12-16T14:06:48.952Z,0.70
2022-12-16T14:09:42.307Z,0.70
2022-12-16T14:12:31.289Z,0.60
2022-12-16T14:15:20.452Z,0.60
2022-12-16T14:18:08.656Z,0.50
2022-12-16T14:20:53.672Z,0.40
2022-12-16T14:23:56.786Z,0.40
2022-12-16T14:26:43.324Z,0.30
2022-12-16T14:29:36.845Z,0.30
2022-12-16T14:32:36.330Z,0.20
2022-12-16T14:35:22.040Z,0.20
2022-12-16T14:38:07.275Z,0.10
2022-12-16T14:40:52.464Z,0.10
2022-12-16T14:43:38.851Z,0.00
2022-12-16T14:46:25.729Z,0.00
2022-12-16T14:49:11.209Z,-0.10
2022-12-16T14:51:56.678Z,-0.10
2022-12-16T14:54:43.339Z,-0.20
2022-12-16T14:57:33.036Z,-0.10
2022-12-16T15:00:19.372Z,-0.30
2022-12-16T15:03:06.926Z,-0.40
2022-12-16T15:05:53.689Z,-0.40
2022-12-16T15:08:41.814Z,-0.50
2022-12-16T15:11:28.451Z,-0.40
2022-12-16T15:14:15.532Z,-0.40
2022-12-16T15:17:01.327Z,-0.40
2022-12-16T15:19:49.934Z,-0.50
2022-12-16T15:22:35.492Z,-0.60
2022-12-16T15:25:21.150Z,-0.60
2022-12-16T15:28:12.274Z,-0.60
2022-12-16T15:30:58.379Z,-0.70
2022-12-16T15:33:45.327Z,-0.80
2022-12-16T15:36:37.360Z,-0.90
2022-12-16T15:39:33.168Z,-0.90
2022-12-16T15:42:20.113Z,-0.90
2022-12-16T15:45:06.893Z,-1.00
2022-12-16T15:47:53.467Z,-1.20
2022-12-16T15:50:39.584Z,-1.10
2022-12-16T15:53:47.695Z,-1.30
2022-12-16T15:56:37.753Z,-1.30
2022-12-16T15:59:32.931Z,-1.40
2022-12-16T16:02:23.691Z,-1.50
2022-12-16T16:05:11.649Z,-1.60
2022-12-16T16:08:01.903Z,-1.70
2022-12-16T16:10:50.219Z,-1.80
2022-12-16T16:13:35.008Z,-1.80
2022-12-16T16:16:21.903Z,-1.80
2022-12-16T16:19:07.268Z,-1.90
2022-12-16T16:21:52.423Z,-1.90
2022-12-16T16:24:37.523Z,-2.10
2022-12-16T16:27:24.849Z,-2.10
2022-12-16T16:30:18.420Z,-2.20
2022-12-16T16:33:04.214Z,-2.20
2022-12-16T16:35:50.362Z,-2.10
2022-12-16T16:38:35.481Z,-2.20
2022-12-16T16:41:20.639Z,-2.20
2022-12-16T16:44:06.947Z,-2.20
2022-12-16T16:46:53.699Z,-2.30
2022-12-16T16:49:40.591Z,-2.40
2022-12-16T16:52:29.719Z,-2.50
2022-12-16T16:55:14.665Z,-2.50
2022-12-16T16:57:59.724Z,-2.40
2022-12-16T17:00:46.111Z,-2.50
2022-12-16T17:03:32.080Z,-2.40
2022-12-16T17:06:17.914Z,-2.30
2022-12-16T17:09:03.193Z,-2.30
2022-12-16T17:11:48.828Z,-2.30
2022-12-16T17:14:37.432Z,-2.30
2022-12-16T17:17:24.294Z,-2.30
2022-12-16T17:20:10.109Z,-2.30
2022-12-16T17:22:54.829Z,-2.30
2022-12-16T17:25:40.046Z,-2.40
2022-12-16T17:28:25.028Z,-2.30
2022-12-16T17:31:10.153Z,-2.40
2022-12-16T17:33:56.532Z,-2.40
2022-12-16T17:36:41.861Z,-2.60
2022-12-16T17:39:27.964Z,-2.80
2022-12-16T17:42:13.581Z,-2.90
2022-12-16T17:44:58.777Z,-2.90
2022-12-16T17:47:44.001Z,-3.00
2022-12-16T17:50:30.207Z,-3.00
2022-12-16T17:53:15.836Z,-3.10
2022-12-16T17:56:00.820Z,-3.10
2022-12-16T17:58:49.583Z,-3.10
2022-12-16T18:01:34.808Z,-3.10
2022-12-16T18:04:20.154Z,-3.10
2022-12-16T18:07:05.954Z,-3.20
2022-12-16T18:09:51.060Z,-3.10
2022-12-16T18:12:36.133Z,-3.20
2022-12-16T18:15:21.297Z,-3.30
2022-12-16T18:18:06.717Z,-3.20
2022-12-16T18:20:52.426Z,-3.20
2022-12-16T18:23:38.693Z,-3.20
2022-12-16T18:26:25.475Z,-3.30
2022-12-16T18:29:10.560Z,-3.20
2022-12-16T18:31:55.683Z,-3.20
2022-12-16T18:34:41.094Z,-3.20
2022-12-16T18:37:27.725Z,-3.20
2022-12-16T18:40:14.133Z,-3.30
2022-12-16T18:42:59.555Z,-3.40
2022-12-16T18:45:44.560Z,-3.50
2022-12-16T18:48:29.883Z,-3.50
2022-12-16T18:51:15.800Z,-3.50
2022-12-16T18:54:00.974Z,-3.60
2022-12-16T18:56:47.992Z,-3.60
2022-12-16T18:59:33.051Z,-3.60
2022-12-16T19:02:18.263Z,-3.60
2022-12-16T19:05:03.705Z,-3.70
2022-12-16T19:07:48.802Z,-3.70
2022-12-16T19:10:34.036Z,-3.70
2022-12-16T19:13:20.334Z,-3.70
2022-12-16T19:16:11.491Z,-3.80
2022-12-16T19:18:56.656Z,-3.90
2022-12-16T19:21:52.082Z,-3.90
2022-12-16T19:24:41.589Z,-3.80
2022-12-16T19:27:26.687Z,-3.80
2022-12-16T19:30:13.035Z,-3.80
2022-12-16T19:32:58.322Z,-3.70
2022-12-16T19:35:43.462Z,-3.80
2022-12-16T19:38:30.554Z,-3.90
2022-12-16T19:41:16.104Z,-4.00
2022-12-16T19:44:05.741Z,-4.00
2022-12-16T19:46:53.357Z,-4.10
2022-12-16T19:49:44.656Z,-4.10
2022-12-16T19:52:30.195Z,-4.20
2022-12-16T19:58:20.629Z,-4.20
2022-12-16T20:01:05.883Z,-4.20
2022-12-16T20:06:58.000Z,-4.10
2022-12-16T20:09:43.420Z,-4.00
2022-12-16T20:12:29.043Z,-4.00
2022-12-16T20:15:14.096Z,-4.00
2022-12-16T20:17:59.717Z,-4.00
2022-12-16T20:20:45.975Z,-4.00
2022-12-16T20:23:31.324Z,-4.00
2022-12-16T20:26:17.262Z,-4.00
2022-12-16T20:29:02.757Z,-4.10
2022-12-16T20:31:48.396Z,-4.20
2022-12-16T20:34:33.466Z,-4.20
2022-12-16T20:37:34.834Z,-4.20
2022-12-16T20:40:20.382Z,-4.20
2022-12-16T20:43:05.494Z,-4.20
2022-12-16T20:45:51.760Z,-4.30
2022-12-16T20:48:36.788Z,-4.30
2022-12-16T20:51:30.981Z,-4.40
2022-12-16T20:54:25.599Z,-4.40
2022-12-16T20:57:13.020Z,-4.40
2022-12-16T21:00:04.142Z,-4.40
2022-12-16T21:02:57.739Z,-4.40
2022-12-16T21:05:42.868Z,-4.30
2022-12-16T21:08:27.887Z,-4.30
2022-12-16T21:11:16.012Z,-4.30
2022-12-16T21:14:01.054Z,-4.20
2022-12-16T21:14:28.641Z,-4.10
2022-12-16T21:16:46.004Z,-4.20
2022-12-16T21:19:33.878Z,-4.30
2022-12-16T21:22:30.582Z,-4.50
2022-12-16T21:25:19.763Z,-4.50
2022-12-16T21:28:09.591Z,-4.60
2022-12-16T21:30:54.695Z,-4.60
2022-12-16T21:33:41.883Z,-4.60
2022-12-16T21:36:27.673Z,-4.60
2022-12-16T21:39:12.699Z,-4.60
2022-12-16T21:41:58.051Z,-4.60
2022-12-16T21:44:44.478Z,-4.60
2022-12-16T21:47:29.752Z,-4.60
2022-12-16T21:50:14.970Z,-4.60
2022-12-16T21:53:00.397Z,-4.60
2022-12-16T21:55:45.585Z,-4.70
2022-12-16T21:58:31.284Z,-4.70
2022-12-16T22:01:18.127Z,-4.80
2022-12-16T22:04:03.356Z,-4.70
2022-12-16T22:06:49.092Z,-4.70
2022-12-16T22:09:35.276Z,-4.70
2022-12-16T22:12:20.501Z,-4.70
2022-12-16T22:15:17.226Z,-4.70
2022-12-16T22:18:03.938Z,-4.60
2022-12-16T22:20:49.091Z,-4.70
2022-12-16T22:23:34.249Z,-4.70
2022-12-16T22:26:19.413Z,-4.70
2022-12-16T22:29:05.124Z,-4.70
2022-12-16T22:31:50.169Z,-4.70
2022-12-16T22:34:36.812Z,-4.80
2022-12-16T22:36:20.417Z,-4.20
2022-12-16T22:37:21.968Z,-4.70
2022-12-16T22:40:07.066Z,-3.90
2022-12-16T22:42:52.349Z,-3.00
2022-12-16T22:45:37.715Z,-2.60
2022-12-16T22:48:23.401Z,-2.10
2022-12-16T22:51:09.837Z,-1.60
2022-12-16T22:53:55.142Z,-1.40
2022-12-16T22:56:56.400Z,-1.30
2022-12-16T22:59:41.932Z,-1.20
2022-12-16T23:02:26.997Z,-1.00
2022-12-16T23:05:12.122Z,-0.90
2022-12-16T23:07:58.478Z,-0.80
2022-12-16T23:10:43.549Z,-0.70
2022-12-16T23:13:29.162Z,-0.70
2022-12-16T23:16:14.292Z,-0.60
2022-12-16T23:18:59.394Z,-0.70
2022-12-16T23:21:44.510Z,-0.60
2022-12-16T23:24:31.339Z,-0.60
2022-12-16T23:27:17.014Z,-0.70
2022-12-16T23:30:16.592Z,-0.60
2022-12-16T23:33:01.902Z,-0.70
2022-12-16T23:35:47.321Z,-0.60
2022-12-16T23:38:32.502Z,-0.60
2022-12-16T23:41:19.396Z,-0.60
2022-12-16T23:44:04.824Z,-0.60
2022-12-16T23:46:49.995Z,-0.60
2022-12-16T23:49:35.706Z,-0.60
2022-12-16T23:52:20.888Z,-0.60
2022-12-16T23:55:06.093Z,-0.50
2022-12-16T23:57:52.548Z,-0.60
